• Join FlightAware (Why Join?)
  • Login
  • US Flag 
12:06AM EDT


 

Airport Tracker/Info


-or-


 

Live Flight TrackerFlight Track Log ✈ VH-TZH ✈ 09-May-2013 ✈ YPKG / KGI - YAYE / AYQ

Flight Track Log - Related Links

Times and Time Zones

All times are in EDT time to prevent confusion due to time zone crossing. See the VH-TZH flight status page for this flight to view local times or setup timezone preferences in your user account.

Time Position Orientation Groundspeed Altitude Reporting Facility
EDT Latitude Longitude Course Direction KTS MPH feet Rate Location/Type
04:30AM -30.6420 121.6341 360° North 9,000  Level Aus ATC (Calculated)
04:30AM -30.6420 121.6341 360° North 9,000  Level Aus ATC (Calculated)
04:31AM -30.6420 121.6341 45° Northeast 9,000  Level Aus ATC (Calculated)
04:33AM -30.6103 121.6712 45° Northeast  Level FlightAware Approximate
04:34AM -30.5898 121.6951 45° Northeast  Level FlightAware Approximate
04:34AM -30.5036 121.7953 45° Northeast 9,000  Level Aus ATC (Calculated)
04:36AM -30.4718 121.8323 45° Northeast  Level FlightAware Approximate
04:37AM -30.4513 121.8561 45° Northeast  Level FlightAware Approximate
04:38AM -30.4307 121.8800 45° Northeast  Level FlightAware Approximate
04:39AM -30.4102 121.9038 45° Northeast  Level FlightAware Approximate
04:40AM -30.3897 121.9277 45° Northeast  Level FlightAware Approximate
04:41AM -30.3691 121.9515 45° Northeast  Level FlightAware Approximate
04:41AM -30.2435 122.0962 360° North 9,000  Level Aus ATC (Calculated)
04:41AM -30.2435 122.0962 45° Northeast 9,000  Level Aus ATC (Calculated)
04:43AM -30.2108 122.1340 45° Northeast  Level FlightAware Approximate
04:44AM -30.1899 122.1581 45° Northeast  Level FlightAware Approximate
04:45AM -30.1690 122.1822 45° Northeast  Level FlightAware Approximate
04:46AM -30.1481 122.2062 45° Northeast  Level FlightAware Approximate
04:47AM -30.1273 122.2303 45° Northeast  Level FlightAware Approximate
04:48AM -30.1064 122.2543 45° Northeast  Level FlightAware Approximate
04:49AM -30.0855 122.2784 45° Northeast  Level FlightAware Approximate
04:50AM -30.0646 122.3024 45° Northeast  Level FlightAware Approximate
04:51AM -30.0437 122.3264 45° Northeast  Level FlightAware Approximate
04:52AM -30.0228 122.3504 45° Northeast  Level FlightAware Approximate
04:53AM -30.0018 122.3745 45° Northeast  Level FlightAware Approximate
04:54AM -29.9809 122.3984 45° Northeast  Level FlightAware Approximate
04:54AM -29.7294 122.6841 225° Southwest 9,000  Level Aus ATC (Calculated)
04:54AM -29.7294 122.6841 45° Northeast 9,000  Level Aus ATC (Calculated)
04:56AM -29.6990 122.7187 45° Northeast  Level FlightAware Approximate
04:57AM -29.6780 122.7426 45° Northeast  Level FlightAware Approximate
04:58AM -29.6570 122.7664 45° Northeast  Level FlightAware Approximate
04:59AM -29.6360 122.7902 45° Northeast  Level FlightAware Approximate
05:00AM -29.6150 122.8140 45° Northeast  Level FlightAware Approximate
05:01AM -29.5940 122.8379 45° Northeast  Level FlightAware Approximate
05:02AM -29.5730 122.8617 45° Northeast  Level FlightAware Approximate
05:03AM -29.5520 122.8855 45° Northeast  Level FlightAware Approximate
05:04AM -29.5310 122.9092 45° Northeast  Level FlightAware Approximate
05:05AM -29.5100 122.9330 45° Northeast  Level FlightAware Approximate
05:06AM -29.4890 122.9568 45° Northeast  Level FlightAware Approximate
05:07AM -29.4680 122.9805 45° Northeast  Level FlightAware Approximate
05:08AM -29.4470 123.0042 45° Northeast  Level FlightAware Approximate
05:09AM -29.4259 123.0280 45° Northeast  Level FlightAware Approximate
05:10AM -29.4049 123.0517 44° Northeast  Level FlightAware Approximate
05:11AM -29.3839 123.0754 44° Northeast  Level FlightAware Approximate
05:12AM -29.3628 123.0991 44° Northeast  Level FlightAware Approximate
05:13AM -29.3418 123.1228 44° Northeast  Level FlightAware Approximate
05:14AM -29.3207 123.1465 44° Northeast  Level FlightAware Approximate
05:15AM -29.2997 123.1701 45° Northeast  Level FlightAware Approximate
05:16AM -29.2786 123.1937 44° Northeast  Level FlightAware Approximate
05:17AM -29.2575 123.2174 44° Northeast  Level FlightAware Approximate
05:18AM -29.2365 123.2410 44° Northeast  Level FlightAware Approximate
05:19AM -29.2154 123.2646 44° Northeast  Level FlightAware Approximate
05:20AM -29.1943 123.2883 44° Northeast  Level FlightAware Approximate
05:21AM -29.1733 123.3119 44° Northeast  Level FlightAware Approximate
05:22AM -29.1522 123.3355 44° Northeast  Level FlightAware Approximate
05:23AM -29.1311 123.3591 44° Northeast  Level FlightAware Approximate
05:24AM -29.1100 123.3826 44° Northeast  Level FlightAware Approximate
05:25AM -29.0889 123.4062 44° Northeast  Level FlightAware Approximate
05:26AM -29.0678 123.4298 44° Northeast  Level FlightAware Approximate
05:27AM -29.0467 123.4533 44° Northeast  Level FlightAware Approximate
05:28AM -29.0256 123.4769 44° Northeast  Level FlightAware Approximate
05:29AM -29.0045 123.5004 44° Northeast  Level FlightAware Approximate
05:30AM -28.9834 123.5239 44° Northeast  Level FlightAware Approximate
05:31AM -28.9622 123.5474 44° Northeast  Level FlightAware Approximate
05:32AM -28.9411 123.5709 44° Northeast  Level FlightAware Approximate
05:33AM -28.9200 123.5944 44° Northeast  Level FlightAware Approximate
05:34AM -28.8988 123.6179 44° Northeast  Level FlightAware Approximate
05:34AM -28.2629 124.3143 44° Northeast 9,000  Level Aus ATC (Calculated)
05:35AM -28.1923 124.3913 44° Northeast 9,000  Level Aus ATC (Calculated)
05:37AM -28.1509 124.4365 44° Northeast  Level FlightAware Approximate
05:38AM -28.1296 124.4597 44° Northeast  Level FlightAware Approximate
05:38AM -28.0511 124.5451 44° Northeast 9,000  Level Aus ATC (Calculated)
05:40AM -28.0206 124.5783 44° Northeast  Level FlightAware Approximate
05:41AM -27.9993 124.6014 44° Northeast  Level FlightAware Approximate
05:42AM -27.9780 124.6245 44° Northeast  Level FlightAware Approximate
05:43AM -27.9568 124.6476 44° Northeast  Level FlightAware Approximate
05:44AM -27.9355 124.6706 44° Northeast  Level FlightAware Approximate
05:45AM -27.9142 124.6937 44° Northeast  Level FlightAware Approximate
05:46AM -27.8929 124.7168 44° Northeast  Level FlightAware Approximate
05:47AM -27.8715 124.7398 44° Northeast  Level FlightAware Approximate
05:48AM -27.8502 124.7629 44° Northeast  Level FlightAware Approximate
05:49AM -27.8289 124.7859 44° Northeast  Level FlightAware Approximate
05:50AM -27.8076 124.8089 44° Northeast  Level FlightAware Approximate
05:51AM -27.7863 124.8319 44° Northeast  Level FlightAware Approximate
05:52AM -27.7650 124.8550 44° Northeast  Level FlightAware Approximate
05:52AM -27.5555 125.0802 224° Southwest 9,000  Level Aus ATC (Calculated)
05:53AM -27.7436 124.8780 44° Northeast  Level FlightAware Approximate
05:54AM -27.5322 125.1052 44° Northeast  Level FlightAware Approximate
05:55AM -27.5114 125.1276 44° Northeast  Level FlightAware Approximate
05:56AM -27.4905 125.1499 44° Northeast  Level FlightAware Approximate
05:57AM -27.4696 125.1722 44° Northeast  Level FlightAware Approximate
05:57AM -27.3425 125.3081 225° Southwest 9,000  Level Aus ATC (Calculated)
05:57AM -27.3425 125.3081 223° Southwest 9,000  Level Aus ATC (Calculated)
05:58AM -27.4488 125.1946 44° Northeast  Level FlightAware Approximate
05:59AM -27.3125 125.3400 43° Northeast  Level FlightAware Approximate
06:00AM -27.2916 125.3623 43° Northeast  Level FlightAware Approximate
06:01AM -27.2707 125.3846 43° Northeast  Level FlightAware Approximate
06:02AM -27.2603 125.4147 77° East  Level Estimated
06:03AM -27.2485 125.4443 66° East  Level FlightAware Approximate
06:04AM -27.2367 125.4738 66° East  Level FlightAware Approximate
06:05AM -27.2535 125.5270 65° Northeast  Level FlightAware Approximate
06:06AM -27.2415 125.5564 65° Northeast  Level FlightAware Approximate
06:07AM -27.2295 125.5858 65° Northeast  Level FlightAware Approximate
06:08AM -27.2175 125.6152 65° Northeast  Level FlightAware Approximate
06:09AM -27.2054 125.6446 65° Northeast  Level FlightAware Approximate
06:10AM -27.1934 125.6740 65° Northeast  Level FlightAware Approximate
06:11AM -27.1814 125.7034 65° Northeast  Level FlightAware Approximate
06:12AM -27.1693 125.7328 65° Northeast  Level FlightAware Approximate
06:13AM -27.1573 125.7622 65° Northeast  Level FlightAware Approximate
06:14AM -27.1452 125.7915 65° Northeast  Level FlightAware Approximate
06:15AM -27.1332 125.8209 65° Northeast  Level FlightAware Approximate
06:16AM -27.1211 125.8502 65° Northeast  Level FlightAware Approximate
06:17AM -27.1091 125.8796 65° Northeast  Level FlightAware Approximate
06:18AM -27.0970 125.9089 65° Northeast  Level FlightAware Approximate
06:18AM -26.5582 126.1363 72° East 9,000  Level Aus ATC (Calculated)
06:20AM -26.5422 126.1908 72° East  Level FlightAware Approximate
06:21AM -26.5333 126.2214 72° East  Level FlightAware Approximate
06:22AM -26.5243 126.2520 72° East  Level FlightAware Approximate
06:23AM -26.5154 126.2825 72° East  Level FlightAware Approximate
06:24AM -26.5064 126.3131 72° East  Level FlightAware Approximate
06:25AM -26.4975 126.3437 72° East  Level FlightAware Approximate
06:26AM -26.4885 126.3742 72° East  Level FlightAware Approximate
06:27AM -26.4795 126.4047 72° East  Level FlightAware Approximate
06:28AM -26.4705 126.4353 72° East  Level FlightAware Approximate
06:29AM -26.4615 126.4658 72° East  Level FlightAware Approximate
06:30AM -26.4525 126.4964 72° East  Level FlightAware Approximate
06:31AM -26.4435 126.5269 72° East  Level FlightAware Approximate
06:32AM -26.4345 126.5574 72° East  Level FlightAware Approximate
06:33AM -26.4255 126.5879 72° East  Level FlightAware Approximate
06:34AM -26.4165 126.6184 72° East  Level FlightAware Approximate
06:35AM -26.4074 126.6489 72° East  Level FlightAware Approximate
06:36AM -26.3984 126.6795 72° East  Level FlightAware Approximate
06:36AM -26.0492 126.9739 77° East 9,000  Level Aus ATC (Calculated)
06:37AM -26.0429 127.0051 77° East  Level FlightAware Approximate
06:37AM -26.0293 127.0715 257° West 9,000  Level Aus ATC (Calculated)
06:38AM -26.0365 127.0363 77° East  Level FlightAware Approximate
06:39AM -26.0221 127.1065 77° East  Level FlightAware Approximate
06:40AM -26.0157 127.1379 77° East  Level FlightAware Approximate
06:41AM -26.0093 127.1692 77° East  Level FlightAware Approximate
06:42AM -26.0028 127.2006 77° East  Level FlightAware Approximate
06:43AM -25.9963 127.2319 77° East  Level FlightAware Approximate
06:44AM -25.9899 127.2633 77° East  Level FlightAware Approximate
06:45AM -25.9834 127.2947 77° East  Level FlightAware Approximate
06:46AM -25.9769 127.3260 77° East  Level FlightAware Approximate
06:47AM -25.9705 127.3574 77° East  Level FlightAware Approximate
06:47AM -25.9287 127.5588 77° East 9,000  Level Aus ATC (Calculated)
06:47AM -25.9083 127.6562 77° East 9,000  Level Aus ATC (Calculated)
06:49AM -25.8992 127.7000 77° East  Level FlightAware Approximate
06:50AM -25.8926 127.7313 77° East  Level FlightAware Approximate
06:51AM -25.8860 127.7626 77° East  Level FlightAware Approximate
06:52AM -25.8794 127.7939 77° East  Level FlightAware Approximate
06:53AM -25.8729 127.8252 77° East  Level FlightAware Approximate
06:54AM -25.8663 127.8565 77° East  Level FlightAware Approximate
06:55AM -25.8597 127.8878 77° East  Level FlightAware Approximate
06:56AM -25.8531 127.9190 77° East  Level FlightAware Approximate
06:57AM -25.8465 127.9503 77° East  Level FlightAware Approximate
06:58AM -25.8399 127.9816 77° East  Level FlightAware Approximate
06:59AM -25.8333 128.0129 77° East  Level FlightAware Approximate
06:59AM -25.7642 128.3368 360° North 9,000  Level Aus ATC (Calculated)
06:59AM -25.7642 128.3368 77° East 9,000  Level Aus ATC (Calculated)
07:01AM -25.7544 128.3826 77° East  Level FlightAware Approximate
07:02AM -25.7477 128.4138 77° East  Level FlightAware Approximate
07:02AM -25.7225 128.5310 257° West 9,000  Level Aus ATC (Calculated)
07:03AM -25.7410 128.4451 77° East  Level FlightAware Approximate
07:03AM -25.7225 128.5310 77° East 9,000  Level Aus ATC (Calculated)
07:05AM -25.7126 128.5768 77° East  Level FlightAware Approximate
07:06AM -25.7059 128.6080 77° East  Level FlightAware Approximate
07:07AM -25.6991 128.6392 76° East  Level FlightAware Approximate
07:08AM -25.6924 128.6704 76° East  Level FlightAware Approximate
07:09AM -25.6856 128.7016 76° East  Level FlightAware Approximate
07:10AM -25.6788 128.7328 76° East  Level FlightAware Approximate
07:10AM -25.6382 128.9189 76° East 9,000  Level Aus ATC (Calculated)
07:12AM -25.6283 128.9641 76° East  Level FlightAware Approximate
07:13AM -25.6215 128.9952 76° East  Level FlightAware Approximate
07:14AM -25.6147 129.0264 76° East  Level FlightAware Approximate
07:15AM -25.6078 129.0576 76° East  Level FlightAware Approximate
07:16AM -25.6010 129.0887 76° East  Level FlightAware Approximate
07:17AM -25.5941 129.1199 76° East  Level FlightAware Approximate
07:18AM -25.5872 129.1510 76° East  Level FlightAware Approximate
07:19AM -25.5804 129.1821 76° East  Level FlightAware Approximate
07:20AM -25.5735 129.2133 76° East  Level FlightAware Approximate
07:21AM -25.5666 129.2444 76° East  Level FlightAware Approximate
07:22AM -25.5597 129.2755 76° East  Level FlightAware Approximate
07:23AM -25.5528 129.3067 76° East  Level FlightAware Approximate
07:24AM -25.5459 129.3378 76° East  Level FlightAware Approximate
07:25AM -25.5390 129.3689 76° East  Level FlightAware Approximate
07:26AM -25.5321 129.4000 76° East  Level FlightAware Approximate
07:27AM -25.5252 129.4311 76° East  Level FlightAware Approximate
07:28AM -25.5182 129.4622 76° East  Level FlightAware Approximate
07:29AM -25.5113 129.4934 76° East  Level FlightAware Approximate
07:30AM -25.5044 129.5245 76° East  Level FlightAware Approximate
07:30AM -25.3801 130.0945 256° West 500  Level Aus ATC (Calculated)
07:31AM -25.3869 130.0634 257° West  Level FlightAware Approximate
07:32AM -25.3936 130.0323 257° West  Level FlightAware Approximate
07:32AM -25.3627 130.1747 360° North 500  Level Aus ATC (Calculated)
07:32AM -25.3627 130.1747 76° East 500  Level Aus ATC (Calculated)
07:33AM -25.3452 130.2549 360° North 500  Level Aus ATC (Calculated)
07:34AM -25.3452 130.2549 256° West 500  Level Aus ATC (Calculated)
07:36AM -25.3546 130.2122 256° West  Level FlightAware Approximate
07:37AM -25.3598 130.1882 256° West  Level FlightAware Approximate
07:37AM -25.2926 130.4953 360° North 500  Level Aus ATC (Calculated)
07:37AM -25.2926 130.4953 102° East 500  Level Aus ATC (Calculated)
07:37AM -25.2926 130.4954 256° West 500  Level Aus ATC (Calculated)
07:39AM -25.3014 130.4554 256° West  Level FlightAware Approximate
07:40AM -25.3066 130.4315 256° West  Level FlightAware Approximate
07:41AM -25.3014 130.4554 77° East  Level Estimated
07:42AM -25.2961 130.4794 77° East  Level Estimated
07:43AM -25.2908 130.5033 77° East  Level Estimated
07:44AM -25.2856 130.5273 77° East  Level Estimated
07:45AM -25.2803 130.5512 77° East  Level Estimated
07:46AM -25.2750 130.5751 77° East  Level Estimated
07:47AM -25.2697 130.5991 77° East  Level Estimated
07:48AM -25.2645 130.6230 77° East  Level Estimated
07:49AM -25.2592 130.6469 77° East  Level Estimated
07:50AM -25.2539 130.6709 77° East  Level Estimated
07:51AM -25.2486 130.6948 77° East  Level Estimated
07:52AM -25.2433 130.7187 77° East  Level Estimated
07:53AM -25.2380 130.7426 77° East  Level Estimated
07:54AM -25.2327 130.7665 77° East  Level Estimated
07:55AM -25.2274 130.7905 77° East  Level Estimated
07:56AM -25.2220 130.8144 77° East  Level Estimated
07:57AM -25.2167 130.8383 77° East  Level Estimated
07:58AM -25.2114 130.8622 77° East  Level Estimated
07:59AM -25.1861 130.9756 77° East  Level Estimated
08:00AM -25.1861 130.9756 77° East  Level Estimated
08:01AM -25.1861 130.9756 77° East  Level Estimated
08:02AM -25.1861 130.9756 77° East  Level Estimated
08:03AM -25.1861 130.9756 77° East  Level Estimated
08:04AM -25.1861 130.9756 77° East  Level Estimated
08:05AM -25.1861 130.9756 77° East  Level Estimated
08:06AM -25.1861 130.9756 77° East  Level Estimated
08:07AM -25.1861 130.9756 77° East  Level Estimated
08:08AM -25.1861 130.9756 77° East  Level Estimated
08:09AM -25.1861 130.9756 77° East  Level Estimated
08:10AM -25.1861 130.9756 77° East  Level Estimated
08:11AM -25.1861 130.9756 77° East  Level Estimated
08:12AM -25.1861 130.9756 77° East  Level Estimated
08:13AM -25.1861 130.9756 77° East  Level Estimated
08:14AM -25.1861 130.9756 77° East  Level Estimated
08:15AM -25.1861 130.9756 77° East  Level Estimated
08:16AM -25.1861 130.9756 77° East  Level Estimated
08:17AM -25.1861 130.9756 77° East  Level Estimated
08:18AM -25.1861 130.9756 77° East  Level Estimated
08:19AM -25.1861 130.9756 77° East  Level Estimated
08:20AM -25.1861 130.9756 77° East  Level Estimated
08:21AM -25.1861 130.9756 77° East  Level Estimated
08:22AM -25.1861 130.9756 77° East  Level Estimated
08:23AM -25.1861 130.9756 77° East  Level Estimated
08:24AM -25.1861 130.9756 77° East  Level Estimated
08:25AM -25.1861 130.9756 77° East  Level Estimated
08:26AM -25.1861 130.9756 77° East  Level Estimated
08:27AM -25.1861 130.9756 77° East  Level Estimated
08:28AM -25.1861 130.9756 77° East  Level Estimated
08:29AM -25.1861 130.9756 77° East  Level Estimated
08:30AM -25.1861 130.9756 77° East  Level Estimated
08:31AM -25.1861 130.9756 77° East  Level Estimated
08:32AM -25.1861 130.9756 77° East  Level Estimated
08:33AM -25.1861 130.9756 77° East  Level Estimated
08:34AM -25.1861 130.9756 77° East  Level Estimated
08:35AM -25.1861 130.9756 77° East  Level Estimated
08:36AM -25.1861 130.9756 77° East  Level Estimated
08:37AM -25.1861 130.9756 77° East  Level Estimated
08:38AM -25.1861 130.9756 77° East  Level Estimated
08:39AM -25.1861 130.9756 77° East  Level Estimated
08:40AM -25.1861 130.9756 77° East  Level Estimated
08:41AM -25.1861 130.9756 77° East  Level Estimated
08:42AM -25.1861 130.9756 77° East  Level Estimated
08:43AM -25.1861 130.9756 77° East  Level Estimated
08:44AM -25.1861 130.9756 77° East  Level Estimated
08:45AM -25.1861 130.9756 77° East  Level Estimated
08:46AM -25.1861 130.9756 77° East  Level Estimated
08:47AM -25.1861 130.9756 77° East  Level Estimated
08:48AM -25.1861 130.9756 77° East  Level Estimated
08:49AM -25.1861 130.9756 77° East  Level Estimated
08:50AM -25.1861 130.9756 77° East  Level Estimated
08:51AM -25.1861 130.9756 77° East  Level Estimated
08:52AM -25.1861 130.9756 77° East  Level Estimated
08:53AM -25.1861 130.9756 77° East  Level Estimated
08:54AM -25.1861 130.9756 77° East  Level Estimated
08:55AM -25.1861 130.9756 77° East  Level Estimated
08:56AM -25.1861 130.9756 77° East  Level Estimated
08:57AM -25.1861 130.9756 77° East  Level Estimated
08:58AM -25.1861 130.9756 77° East  Level Estimated
08:59AM -25.1861 130.9756 77° East  Level Estimated
09:00AM -25.1861 130.9756 77° East  Level Estimated
09:01AM -25.1861 130.9756 77° East  Level Estimated
09:02AM -25.1861 130.9756 77° East  Level Estimated
09:03AM -25.1861 130.9756 77° East  Level Estimated
09:04AM -25.1861 130.9756 77° East  Level Estimated
09:05AM -25.1861 130.9756 77° East  Level Estimated